Time,TemperatureF,DewpointF,PressureIn,WindDirection,WindDirectionDegrees,WindSpeedMPH,WindSpeedGustMPH,Humidity,HourlyPrecipIn,Conditions,Clouds,dailyrainin,SolarRadiationWatts/m^2,SoftwareType,DateUTC
2013-10-18 00:03:00,61.0,59.0,-100.00,NW,326,0.0,3.0,93,0.00,,,0.27,0.000000,,2013-10-18 05:03:00,
2013-10-18 00:43:00,58.0,57.0,-100.00,NNE,18,0.0,3.0,98,0.00,,,0.27,0.000000,,2013-10-18 05:43:00,
2013-10-18 00:52:00,58.0,57.0,-100.00,NNE,18,0.0,3.0,98,0.00,,,0.27,0.000000,,2013-10-18 05:52:00,
2013-10-18 01:02:00,58.0,57.0,-100.00,NNE,18,0.0,3.0,98,0.00,,,0.27,0.000000,,2013-10-18 06:02:00,
2013-10-18 01:42:00,57.0,57.0,-100.00,North,350,0.0,0.0,99,0.00,,,0.27,0.000000,,2013-10-18 06:42:00,
2013-10-18 01:52:00,57.0,57.0,-100.00,North,350,0.0,0.0,99,0.00,,,0.27,0.000000,,2013-10-18 06:52:00,
2013-10-18 02:02:00,57.0,57.0,-100.00,North,350,0.0,0.0,99,0.00,,,0.27,0.000000,,2013-10-18 07:02:00,
2013-10-18 02:42:00,56.0,56.0,-100.00,North,353,0.0,1.0,100,0.00,,,0.27,0.000000,,2013-10-18 07:42:00,
2013-10-18 02:52:00,56.0,56.0,-100.00,North,353,0.0,1.0,100,0.00,,,0.27,0.000000,,2013-10-18 07:52:00,
2013-10-18 03:02:00,56.0,56.0,-100.00,North,353,0.0,1.0,100,0.00,,,0.27,0.000000,,2013-10-18 08:02:00,
2013-10-18 03:42:00,55.0,55.0,-100.00,NW,324,0.0,2.0,100,0.00,,,0.27,0.000000,,2013-10-18 08:42:00,
2013-10-18 03:52:00,55.0,55.0,-100.00,NW,324,0.0,2.0,100,0.00,,,0.27,0.000000,,2013-10-18 08:52:00,
2013-10-18 04:02:00,55.0,55.0,-100.00,NW,324,0.0,2.0,100,0.00,,,0.27,0.000000,,2013-10-18 09:02:00,
2013-10-18 04:43:00,54.0,54.0,-100.00,NW,309,0.0,2.0,100,0.00,,,0.20,0.000000,,2013-10-18 09:43:00,
2013-10-18 04:53:00,54.0,54.0,-100.00,NW,309,0.0,2.0,100,0.00,,,0.20,0.000000,,2013-10-18 09:53:00,
2013-10-18 05:03:00,54.0,54.0,-100.00,NW,309,0.0,2.0,100,0.00,,,0.20,0.000000,,2013-10-18 10:03:00,
2013-10-18 05:43:00,53.0,53.0,-100.00,NNW,329,0.0,2.0,100,0.00,,,0.02,0.000000,,2013-10-18 10:43:00,
2013-10-18 05:53:00,53.0,53.0,-100.00,NNW,329,0.0,2.0,100,0.00,,,0.02,0.000000,,2013-10-18 10:53:00,
2013-10-18 06:03:00,53.0,53.0,-100.00,NNW,329,0.0,2.0,100,0.00,,,0.02,0.000000,,2013-10-18 11:03:00,
2013-10-18 06:42:00,52.0,52.0,-100.00,NNW,346,0.0,2.0,100,0.00,,,0.01,0.000000,,2013-10-18 11:42:00,
2013-10-18 06:52:00,52.0,52.0,-100.00,NNW,346,0.0,2.0,100,0.00,,,0.01,0.000000,,2013-10-18 11:52:00,
2013-10-18 07:02:00,52.0,52.0,-100.00,NNW,346,0.0,2.0,100,0.00,,,0.01,0.000000,,2013-10-18 12:02:00,
2013-10-18 07:42:00,51.0,51.0,-100.00,North,0,0.0,1.0,100,0.00,,,0.01,1.000000,,2013-10-18 12:42:00,
2013-10-18 07:52:00,51.0,51.0,-100.00,North,0,0.0,1.0,100,0.00,,,0.01,1.000000,,2013-10-18 12:52:00,
2013-10-18 08:01:00,51.0,51.0,-100.00,North,0,0.0,1.0,100,0.00,,,0.01,1.000000,,2013-10-18 13:01:00,
2013-10-18 08:42:00,53.0,53.0,-100.00,NNE,29,0.0,3.0,100,0.00,,,0.01,31.000000,,2013-10-18 13:42:00,
2013-10-18 08:52:00,53.0,53.0,-100.00,NNE,29,0.0,3.0,100,0.00,,,0.01,31.000000,,2013-10-18 13:52:00,
2013-10-18 09:02:00,53.0,53.0,-100.00,NNE,29,0.0,3.0,100,0.00,,,0.01,31.000000,,2013-10-18 14:02:00,
2013-10-18 09:42:00,59.0,58.0,-100.00,NE,39,2.0,4.0,98,0.00,,,0.01,143.000000,,2013-10-18 14:42:00,
2013-10-18 09:52:00,59.0,58.0,-100.00,NE,39,2.0,4.0,98,0.00,,,0.01,143.000000,,2013-10-18 14:52:00,
2013-10-18 10:02:00,59.0,58.0,-100.00,NE,39,2.0,4.0,98,0.00,,,0.01,143.000000,,2013-10-18 15:02:00,
2013-10-18 10:43:00,66.0,58.0,-100.00,NE,41,4.0,8.0,76,0.00,,,0.01,375.000000,,2013-10-18 15:43:00,
2013-10-18 10:54:00,66.0,58.0,-100.00,NE,41,4.0,8.0,76,0.00,,,0.01,375.000000,,2013-10-18 15:54:00,
2013-10-18 11:04:00,66.0,58.0,-100.00,NE,41,4.0,8.0,76,0.00,,,0.01,375.000000,,2013-10-18 16:04:00,
2013-10-18 11:42:00,69.0,55.0,-100.00,NE,49,5.0,11.0,62,0.00,,,0.00,466.000000,,2013-10-18 16:42:00,
2013-10-18 11:53:00,69.0,55.0,-100.00,NE,49,5.0,11.0,62,0.00,,,0.00,466.000000,,2013-10-18 16:53:00,
2013-10-18 12:03:00,69.0,55.0,-100.00,NE,49,5.0,11.0,62,0.00,,,0.00,466.000000,,2013-10-18 17:03:00,
2013-10-18 12:42:00,70.0,55.0,-100.00,NE,45,5.0,11.0,58,0.00,,,0.00,554.000000,,2013-10-18 17:42:00,
2013-10-18 12:52:00,70.0,55.0,-100.00,NE,45,5.0,11.0,58,0.00,,,0.00,554.000000,,2013-10-18 17:52:00,
2013-10-18 13:02:00,70.0,55.0,-100.00,NE,45,5.0,11.0,58,0.00,,,0.00,554.000000,,2013-10-18 18:02:00,
2013-10-18 13:42:00,71.0,54.0,-100.00,NNE,28,5.0,10.0,56,0.00,,,0.00,438.000000,,2013-10-18 18:42:00,
2013-10-18 13:52:00,71.0,54.0,-100.00,NNE,28,5.0,10.0,56,0.00,,,0.00,438.000000,,2013-10-18 18:52:00,
2013-10-18 14:01:00,71.0,54.0,-100.00,NNE,28,5.0,10.0,56,0.00,,,0.00,438.000000,,2013-10-18 19:01:00,
2013-10-18 14:42:00,70.0,55.0,-100.00,SE,134,0.0,9.0,60,0.00,,,0.00,354.000000,,2013-10-18 19:42:00,
2013-10-18 14:52:00,70.0,55.0,-100.00,SE,134,0.0,9.0,60,0.00,,,0.00,354.000000,,2013-10-18 19:52:00,
2013-10-18 15:02:00,70.0,55.0,-100.00,SE,134,0.0,9.0,60,0.00,,,0.00,354.000000,,2013-10-18 20:02:00,
2013-10-18 15:42:00,69.0,56.0,-100.00,East,88,3.0,5.0,63,0.00,,,0.00,151.000000,,2013-10-18 20:42:00,
2013-10-18 15:52:00,69.0,56.0,-100.00,East,88,3.0,5.0,63,0.00,,,0.00,151.000000,,2013-10-18 20:52:00,
2013-10-18 16:02:00,69.0,56.0,-100.00,East,88,3.0,5.0,63,0.00,,,0.00,151.000000,,2013-10-18 21:02:00,
2013-10-18 16:45:00,70.0,56.0,-100.00,East,83,3.0,7.0,61,0.00,,,0.00,215.000000,,2013-10-18 21:45:00,
2013-10-18 16:54:00,70.0,56.0,-100.00,East,83,3.0,7.0,61,0.00,,,0.00,215.000000,,2013-10-18 21:54:00,
2013-10-18 17:04:00,70.0,56.0,-100.00,East,83,3.0,7.0,61,0.00,,,0.00,215.000000,,2013-10-18 22:04:00,
2013-10-18 17:43:00,69.0,58.0,-100.00,SSE,159,0.0,5.0,68,0.00,,,0.00,146.000000,,2013-10-18 22:43:00,
2013-10-18 17:54:00,69.0,58.0,-100.00,SSE,159,0.0,5.0,68,0.00,,,0.00,146.000000,,2013-10-18 22:54:00,
2013-10-18 18:03:00,69.0,58.0,-100.00,SSE,159,0.0,5.0,68,0.00,,,0.00,146.000000,,2013-10-18 23:03:00,
2013-10-18 18:43:00,64.0,61.0,-100.00,WNW,290,0.0,2.0,90,0.00,,,0.00,42.000000,,2013-10-18 23:43:00,
2013-10-18 18:53:00,64.0,61.0,-100.00,WNW,290,0.0,2.0,90,0.00,,,0.00,42.000000,,2013-10-18 23:53:00,
2013-10-18 19:02:00,64.0,61.0,-100.00,WNW,290,0.0,2.0,90,0.00,,,0.00,42.000000,,2013-10-19 00:02:00,
2013-10-18 19:42:00,63.0,60.0,-100.00,West,271,0.0,0.0,91,0.00,,,0.00,1.000000,,2013-10-19 00:42:00,
2013-10-18 19:52:00,63.0,60.0,-100.00,West,271,0.0,0.0,91,0.00,,,0.00,1.000000,,2013-10-19 00:52:00,
2013-10-18 20:02:00,63.0,60.0,-100.00,West,271,0.0,0.0,91,0.00,,,0.00,1.000000,,2013-10-19 01:02:00,
2013-10-18 20:42:00,62.0,60.0,-100.00,WNW,287,0.0,0.0,92,0.00,,,0.00,0.000000,,2013-10-19 01:42:00,
2013-10-18 20:53:00,62.0,60.0,-100.00,WNW,287,0.0,0.0,92,0.00,,,0.00,0.000000,,2013-10-19 01:53:00,
2013-10-18 21:02:00,62.0,60.0,-100.00,WNW,287,0.0,0.0,92,0.00,,,0.00,0.000000,,2013-10-19 02:02:00,
2013-10-18 21:42:00,62.0,60.0,-100.00,NNE,18,0.0,2.0,94,0.00,,,0.00,0.000000,,2013-10-19 02:42:00,
2013-10-18 21:52:00,62.0,60.0,-100.00,NNE,18,0.0,2.0,94,0.00,,,0.00,0.000000,,2013-10-19 02:52:00,
2013-10-18 22:03:00,62.0,60.0,-100.00,NNE,18,0.0,2.0,94,0.00,,,0.00,0.000000,,2013-10-19 03:03:00,
2013-10-18 22:45:00,61.0,60.0,-100.00,West,276,0.0,0.0,95,0.00,,,0.00,0.000000,,2013-10-19 03:45:00,
2013-10-18 22:55:00,61.0,60.0,-100.00,West,276,0.0,0.0,95,0.00,,,0.00,0.000000,,2013-10-19 03:55:00,
2013-10-18 23:05:00,61.0,60.0,-100.00,West,276,0.0,0.0,95,0.00,,,0.00,0.000000,,2013-10-19 04:05:00,
2013-10-18 23:44:00,61.0,59.0,-100.00,ENE,68,2.0,5.0,92,0.00,,,0.00,0.000000,,2013-10-19 04:44:00,
2013-10-18 23:54:00,61.0,59.0,-100.00,ENE,68,2.0,5.0,92,0.00,,,0.00,0.000000,,2013-10-19 04:54:00,